Friday, June 22, 2018, 3:23 AM EDT
Back to Local

KDXR, Danbury Municipal Airport

Location: Danbury, CT, United States Lat: 41.367
Local Time: 3:23 AM EDT ( 7:23 GMT) Lon: -73.483
Time Zone: US/Eastern Elev: 459 ft

Show me the last for .
Show Decoded

2018-06-22 02:53 METAR KDXR 220653Z AUTO 07003KT 10SM SCT008 BKN036 18/17 A2994 RMK AO2 SLP134
                 T01780172 =
2018-06-22 02:50 METAR KDXR 220650Z AUTO 07003KT 10SM SCT008 BKN036 18/17 A2994 RMK AO2 =
2018-06-22 02:26 METAR KDXR 220626Z AUTO 00000KT 10SM BKN009 OVC029 18/17 A2994 RMK AO2 T01780167
                 =
2018-06-22 02:18 METAR KDXR 220618Z AUTO 00000KT 10SM FEW011 BKN027 18/17 A2993 RMK AO2 T01780172
                 =
2018-06-22 01:53 METAR KDXR 220553Z AUTO 00000KT 10SM CLR 18/16 A2992 RMK AO2 SLP128 T01780161
                 10250 20172 51012 =
2018-06-22 00:53 METAR KDXR 220453Z AUTO 07003KT 10SM CLR 18/17 A2991 RMK AO2 SLP125 T01830167
                 402890183 =
2018-06-21 23:53 METAR KDXR 220353Z AUTO 00000KT 10SM CLR 19/17 A2990 RMK AO2 SLP121 T01940167 =
2018-06-21 22:53 METAR KDXR 220253Z AUTO 00000KT 10SM BKN080 20/16 A2989 RMK AO2 SLP116 T02000156
                 51025 =
2018-06-21 21:53 METAR KDXR 220153Z 24003KT 10SM BKN080 21/15 A2987 RMK AO2 SLP110 T02060150 =
2018-06-21 20:53 METAR KDXR 220053Z VRB03KT 10SM SCT080 24/13 A2983 RMK AO2 SLP098 T02390133 =
2018-06-21 19:53 METAR KDXR 212353Z 35006KT 10SM CLR 25/13 A2981 RMK AO2 SLP090 T02500133 10289
                 20250 53015 =
2018-06-21 18:53 METAR KDXR 212253Z 36005KT 10SM FEW100 26/13 A2979 RMK AO2 SLP084 T02610128 =
2018-06-21 17:53 METAR KDXR 212153Z 36009KT 10SM CLR 28/13 A2978 RMK AO2 SLP079 T02830128 =
2018-06-21 16:53 METAR KDXR 212053Z 35004KT 10SM CLR 28/13 A2977 RMK AO2 SLP076 T02780128 56005 =
2018-06-21 15:53 METAR KDXR 211953Z 33009G16KT 10SM FEW065 28/13 A2977 RMK AO2 SLP076 T02830128 =
2018-06-21 14:53 METAR KDXR 211853Z 00000KT 10SM SCT060 28/13 A2977 RMK AO2 SLP077 T02780133 =
2018-06-21 13:53 METAR KDXR 211753Z 00000KT 10SM FEW060 27/13 A2978 RMK AO2 SLP081 T02720128
                 10272 20194 58008 =
2018-06-21 12:53 METAR KDXR 211653Z 08007KT 10SM CLR 26/14 A2979 RMK AO2 SLP083 T02560139 =
2018-06-21 11:53 METAR KDXR 211553Z 04007KT 10SM FEW050 25/14 A2980 RMK AO2 SLP087 T02500144 =
2018-06-21 10:53 METAR KDXR 211453Z 03006KT 10SM CLR 24/15 A2981 RMK AO2 SLP089 T02440150 51005 =
2018-06-21 09:53 METAR KDXR 211353Z 32006KT 10SM CLR 22/16 A2980 RMK AO2 SLP087 T02220161 =
2018-06-21 08:53 METAR KDXR 211253Z 25004KT 10SM BKN100 21/18 A2980 RMK AO2 SLP088 T02060178 =
2018-06-21 07:53 METAR KDXR 211153Z 00000KT 10SM FEW007 BKN120 19/18 A2979 RMK AO2 SLP085 60003
                 70014 T01940183 10194 20183 51007 =
2018-06-21 07:25 METAR KDXR 211125Z 00000KT 10SM FEW008 BKN110 19/18 A2979 RMK AO2 T01890183 =
2018-06-21 06:53 METAR KDXR 211053Z 00000KT 10SM BKN090 18/18 A2979 RMK AO2 SLP084 T01830178 =
2018-06-21 05:53 METAR KDXR 210953Z AUTO 00000KT 9SM BKN060 OVC080 18/18 A2978 RMK AO2 RAB04E22
                 SLP081 P0000 T01830178 =
2018-06-21 04:53 METAR KDXR 210853Z AUTO 00000KT 10SM FEW003 OVC055 18/18 A2977 RMK AO2 SLP077
                 60003 T01830178 56013 =
2018-06-21 04:37 METAR KDXR 210837Z AUTO 00000KT 10SM FEW003 BKN049 OVC065 18/18 A2977 RMK AO2
                 T01830178 =
2018-06-21 03:53 METAR KDXR 210753Z AUTO 00000KT 10SM OVC043 18/18 A2977 RMK AO2 RAE33 SLP077
                 P0001 T01830183 =

Support USWX by starting your Amazon purchase here.